createdAt,value
2018-01-28T00:01:15.636Z,99509.58
2018-01-28T00:03:43.255Z,99513.77
2018-01-28T00:06:11.077Z,99506.72
2018-01-28T00:08:38.689Z,99500.06
2018-01-28T00:11:06.286Z,99498.02
2018-01-28T00:13:33.929Z,99504.65
2018-01-28T00:16:01.531Z,99501.52
2018-01-28T00:18:29.167Z,99497.61
2018-01-28T00:20:56.775Z,99500.48
2018-01-28T00:23:24.366Z,99498.62
2018-01-28T00:25:51.981Z,99492.24
2018-01-28T00:28:19.581Z,99497.65
2018-01-28T00:30:47.194Z,99505.56
2018-01-28T00:33:14.795Z,99516.48
2018-01-28T00:35:42.420Z,99526.86
2018-01-28T00:38:10.040Z,99530.77
2018-01-28T00:40:37.725Z,99537.42
2018-01-28T00:43:05.335Z,99548.49
2018-01-28T00:45:32.935Z,99544.05
2018-01-28T00:48:00.555Z,99541.34
2018-01-28T00:50:28.151Z,99544.23
2018-01-28T00:52:56.019Z,99543.47
2018-01-28T00:55:23.613Z,99541.69
2018-01-28T00:57:51.224Z,99541.99
2018-01-28T01:00:18.881Z,99538.63
2018-01-28T01:02:46.514Z,99541.27
2018-01-28T01:05:14.145Z,99546.75
2018-01-28T01:07:41.761Z,99549.59
2018-01-28T01:10:09.549Z,99554.09
2018-01-28T01:12:37.140Z,99555.39
2018-01-28T01:15:04.740Z,99559.08
2018-01-28T01:17:32.375Z,99562.54
2018-01-28T01:19:59.985Z,99561.98
2018-01-28T01:22:27.592Z,99547.48
2018-01-28T01:24:55.223Z,99540.61
2018-01-28T01:27:22.980Z,99544.06
2018-01-28T01:29:50.592Z,99548.11
2018-01-28T01:32:18.203Z,99550.36
2018-01-28T01:34:45.832Z,99550.59
2018-01-28T01:37:13.450Z,99542.61
2018-01-28T01:39:41.072Z,99544.20
2018-01-28T01:42:08.680Z,99536.67
2018-01-28T01:44:36.315Z,99536.37
2018-01-28T01:47:03.921Z,99532.57
2018-01-28T01:49:36.022Z,99534.48
2018-01-28T01:52:03.658Z,99525.41
2018-01-28T01:54:31.263Z,99516.67
2018-01-28T01:56:58.908Z,99513.06
2018-01-28T01:59:26.527Z,99513.94
2018-01-28T02:01:54.355Z,99508.63
2018-01-28T02:04:21.969Z,99502.64
2018-01-28T02:06:49.575Z,99500.30
2018-01-28T02:09:17.227Z,99493.47
2018-01-28T02:11:45.814Z,99495.00
2018-01-28T02:14:13.445Z,99483.67
2018-01-28T02:16:41.049Z,99482.13
2018-01-28T02:19:08.689Z,99482.86
2018-01-28T02:21:36.311Z,99473.50
2018-01-28T02:24:03.936Z,99467.10
2018-01-28T02:26:31.698Z,99464.95
2018-01-28T02:28:59.299Z,99459.34
2018-01-28T02:31:26.927Z,99456.27
2018-01-28T02:33:54.539Z,99454.73
2018-01-28T02:36:22.192Z,99444.08
2018-01-28T02:38:49.787Z,99447.22
2018-01-28T02:41:17.399Z,99449.25
2018-01-28T02:43:45.019Z,99451.77
2018-01-28T02:46:12.624Z,99449.36
2018-01-28T02:48:40.254Z,99431.45
2018-01-28T02:51:07.894Z,99422.41
2018-01-28T02:53:35.530Z,99429.23
2018-01-28T02:56:03.152Z,99424.33
2018-01-28T02:58:30.792Z,99422.45
2018-01-28T03:00:58.480Z,99424.50
2018-01-28T03:03:26.082Z,99421.95
2018-01-28T03:05:53.705Z,99416.48
2018-01-28T03:08:21.315Z,99416.98
2018-01-28T03:10:48.959Z,99413.03
2018-01-28T03:13:16.587Z,99411.27
2018-01-28T03:15:44.198Z,99406.56
2018-01-28T03:18:11.810Z,99409.88
2018-01-28T03:20:39.419Z,99404.22
2018-01-28T03:23:07.078Z,99418.44
2018-01-28T03:25:34.695Z,99422.22
2018-01-28T03:28:02.786Z,99421.94
2018-01-28T03:30:30.420Z,99425.36
2018-01-28T03:32:58.110Z,99424.78
2018-01-28T03:35:25.733Z,99428.05
2018-01-28T03:37:53.335Z,99426.75
2018-01-28T03:40:20.956Z,99428.28
2018-01-28T03:42:48.603Z,99422.99
2018-01-28T03:45:16.225Z,99424.73
2018-01-28T03:47:43.824Z,99424.14
2018-01-28T03:50:11.429Z,99425.16
2018-01-28T03:52:39.051Z,99434.63
2018-01-28T03:55:06.653Z,99435.89
2018-01-28T03:57:34.280Z,99442.91
2018-01-28T04:00:01.920Z,99443.41
2018-01-28T04:02:29.791Z,99454.95
2018-01-28T04:04:57.396Z,99456.22
2018-01-28T04:07:25.003Z,99446.83
2018-01-28T04:09:52.651Z,99442.84
2018-01-28T04:12:20.249Z,99447.92
2018-01-28T04:14:47.876Z,99450.72
2018-01-28T04:17:15.475Z,99457.55
2018-01-28T04:19:43.216Z,99452.34
2018-01-28T04:22:10.813Z,99449.33
2018-01-28T04:24:38.433Z,99454.30
2018-01-28T04:27:06.203Z,99451.69
2018-01-28T04:29:33.799Z,99436.95
2018-01-28T04:32:01.484Z,99435.45
2018-01-28T04:34:29.082Z,99431.43
2018-01-28T04:36:56.717Z,99433.70
2018-01-28T04:39:24.328Z,99429.89
2018-01-28T04:41:51.932Z,99426.27
2018-01-28T04:44:19.534Z,99428.63
2018-01-28T04:46:47.147Z,99423.19
2018-01-28T04:49:14.756Z,99425.17
2018-01-28T04:51:42.354Z,99418.22
2018-01-28T04:54:10.189Z,99416.68
2018-01-28T04:56:37.781Z,99422.45
2018-01-28T04:59:05.391Z,99415.66
2018-01-28T05:01:33.023Z,99419.32
2018-01-28T05:04:00.624Z,99417.05
2018-01-28T05:06:28.245Z,99418.09
2018-01-28T05:08:55.848Z,99423.48
2018-01-28T05:11:23.486Z,99437.76
2018-01-28T05:13:51.086Z,99439.25
2018-01-28T05:16:19.858Z,99439.98
2018-01-28T05:18:47.509Z,99437.64
2018-01-28T05:21:15.105Z,99434.39
2018-01-28T05:23:42.719Z,99438.69
2018-01-28T05:26:10.311Z,99427.44
2018-01-28T05:28:38.047Z,99435.27
2018-01-28T05:31:05.632Z,99436.84
2018-01-28T05:33:33.344Z,99440.48
2018-01-28T05:36:01.157Z,99437.77
2018-01-28T05:38:28.746Z,99439.91
2018-01-28T05:40:56.374Z,99445.17
2018-01-28T05:43:23.987Z,99440.64
2018-01-28T05:45:52.000Z,99445.06
2018-01-28T05:48:19.599Z,99444.95
2018-01-28T05:53:21.038Z,99450.05
2018-01-28T05:55:48.627Z,99451.17
2018-01-28T05:58:16.247Z,99448.55
2018-01-28T06:00:43.831Z,99442.70
2018-01-28T06:03:11.673Z,99439.61
2018-01-28T06:05:39.315Z,99438.85
2018-01-28T06:08:06.917Z,99439.90
2018-01-28T06:10:34.542Z,99434.98
2018-01-28T06:13:02.137Z,99428.00
2018-01-28T06:15:29.754Z,99432.94
2018-01-28T06:17:57.348Z,99433.35
2018-01-28T06:20:25.267Z,99438.81
2018-01-28T06:22:52.860Z,99440.67
2018-01-28T06:25:20.469Z,99435.92
2018-01-28T06:27:48.074Z,99439.53
2018-01-28T06:30:15.675Z,99446.13
2018-01-28T06:32:43.287Z,99448.64
2018-01-28T06:35:10.880Z,99459.45
2018-01-28T06:37:38.704Z,99459.80
2018-01-28T06:40:06.299Z,99466.79
2018-01-28T06:42:33.896Z,99473.44
2018-01-28T06:45:01.508Z,99467.50
2018-01-28T06:47:29.094Z,99466.69
2018-01-28T06:49:56.951Z,99460.22
2018-01-28T06:52:24.544Z,99457.12
2018-01-28T06:54:52.139Z,99473.36
2018-01-28T06:57:19.747Z,99468.29
2018-01-28T06:59:47.334Z,99468.80
2018-01-28T07:02:15.370Z,99471.59
2018-01-28T07:04:42.958Z,99473.44
2018-01-28T07:07:10.695Z,99485.00
2018-01-28T07:09:38.316Z,99499.13
2018-01-28T07:12:05.906Z,99504.58
2018-01-28T07:14:33.519Z,99497.33
2018-01-28T07:17:01.108Z,99502.95
2018-01-28T07:19:28.895Z,99505.42
2018-01-28T07:21:56.538Z,99505.81
2018-01-28T07:24:24.129Z,99512.72
2018-01-28T07:26:51.783Z,99509.60
2018-01-28T07:29:19.376Z,99509.17
2018-01-28T07:31:46.989Z,99518.56
2018-01-28T07:34:14.572Z,99518.42
2018-01-28T07:36:42.423Z,99525.76
2018-01-28T07:39:10.010Z,99519.20
2018-01-28T07:41:37.601Z,99516.77
2018-01-28T07:44:05.212Z,99522.02
2018-01-28T07:46:32.804Z,99530.99
2018-01-28T07:49:00.436Z,99530.62
2018-01-28T07:51:28.031Z,99533.27
2018-01-28T07:53:55.671Z,99538.01
2018-01-28T07:56:23.260Z,99544.89
2018-01-28T07:58:50.844Z,99553.65
2018-01-28T08:01:18.458Z,99550.13
2018-01-28T08:03:46.046Z,99552.61
2018-01-28T08:06:13.654Z,99554.65
2018-01-28T08:08:43.593Z,99547.29
2018-01-28T08:11:11.205Z,99548.83
2018-01-28T08:13:49.566Z,99545.91
2018-01-28T08:16:17.200Z,99533.53
2018-01-28T08:18:44.784Z,99540.67
2018-01-28T08:21:12.381Z,99539.86
2018-01-28T08:23:39.995Z,99546.50
2018-01-28T08:26:07.580Z,99547.27
2018-01-28T08:28:40.742Z,99539.67
2018-01-28T08:31:08.343Z,99545.64
2018-01-28T08:33:35.972Z,99536.56
2018-01-28T08:36:03.571Z,99547.12
2018-01-28T08:38:31.263Z,99545.80
2018-01-28T08:40:58.855Z,99555.45
2018-01-28T08:43:26.441Z,99559.64
2018-01-28T08:45:54.047Z,99569.30
2018-01-28T08:48:21.640Z,99568.73
2018-01-28T08:50:49.261Z,99573.53
2018-01-28T08:53:16.855Z,99579.55
2018-01-28T08:55:44.619Z,99575.77
2018-01-28T08:58:12.201Z,99567.06
2018-01-28T09:00:39.788Z,99565.93
2018-01-28T09:03:07.395Z,99570.92
2018-01-28T09:05:34.979Z,99570.79
2018-01-28T09:08:02.593Z,99570.91
2018-01-28T09:10:30.181Z,99562.77
2018-01-28T09:12:57.939Z,99561.16
2018-01-28T09:15:25.519Z,99557.78
2018-01-28T09:17:54.259Z,99565.07
2018-01-28T09:20:21.876Z,99566.89
2018-01-28T09:22:49.520Z,99571.07
2018-01-28T09:25:17.164Z,99573.77
2018-01-28T09:27:44.773Z,99577.27
2018-01-28T09:30:12.595Z,99580.63
2018-01-28T09:32:40.182Z,99588.70
2018-01-28T09:35:07.759Z,99589.82
2018-01-28T09:37:35.371Z,99593.52
2018-01-28T09:40:02.963Z,99600.19
2018-01-28T09:42:30.588Z,99610.59
2018-01-28T09:44:58.175Z,99621.29
2018-01-28T09:47:26.140Z,99624.52
2018-01-28T09:49:53.721Z,99626.84
2018-01-28T09:52:21.337Z,99624.69
2018-01-28T09:54:48.949Z,99629.33
2018-01-28T09:57:16.566Z,99622.80
2018-01-28T09:59:44.206Z,99635.01
2018-01-28T10:02:11.865Z,99633.19
2018-01-28T10:04:39.529Z,99631.39
2018-01-28T10:07:07.118Z,99630.42
2018-01-28T10:09:34.703Z,99638.18
2018-01-28T10:12:02.303Z,99624.40
2018-01-28T10:14:29.895Z,99625.70
2018-01-28T10:16:57.509Z,99621.47
2018-01-28T10:19:25.108Z,99624.97
2018-01-28T10:21:52.763Z,99635.30
2018-01-28T10:24:20.516Z,99633.75
2018-01-28T10:26:48.110Z,99641.32
2018-01-28T10:29:15.727Z,99638.55
2018-01-28T10:31:43.319Z,99637.45
2018-01-28T10:34:10.930Z,99632.86
2018-01-28T10:36:38.523Z,99634.24
2018-01-28T10:39:06.134Z,99632.50
2018-01-28T10:41:33.723Z,99631.11
2018-01-28T10:44:01.347Z,99633.51
2018-01-28T10:46:28.935Z,99635.55
2018-01-28T10:48:56.540Z,99638.03
2018-01-28T10:51:24.162Z,99633.87
2018-01-28T10:53:51.784Z,99641.69
2018-01-28T10:56:19.377Z,99636.03
2018-01-28T10:58:47.913Z,99632.72
2018-01-28T11:01:15.508Z,99651.31
2018-01-28T11:03:43.123Z,99642.25
2018-01-28T11:06:10.705Z,99635.37
2018-01-28T11:08:38.318Z,99636.19
2018-01-28T11:11:05.920Z,99632.16
2018-01-28T11:13:33.507Z,99635.02
2018-01-28T11:16:01.131Z,99639.16
2018-01-28T11:18:28.715Z,99640.63
2018-01-28T11:20:56.345Z,99643.31
2018-01-28T11:23:23.928Z,99650.06
2018-01-28T11:25:51.895Z,99641.77
2018-01-28T11:28:19.482Z,99644.17
2018-01-28T11:30:47.084Z,99639.89
2018-01-28T11:33:14.712Z,99633.19
2018-01-28T11:35:42.300Z,99630.38
2018-01-28T11:38:09.970Z,99624.02
2018-01-28T11:40:37.542Z,99623.61
2018-01-28T11:43:05.160Z,99622.03
2018-01-28T11:45:32.766Z,99616.34
2018-01-28T11:48:00.384Z,99622.64
2018-01-28T11:50:27.977Z,99618.99
2018-01-28T11:52:55.638Z,99614.84
2018-01-28T11:55:23.233Z,99620.78
2018-01-28T11:57:50.849Z,99612.72
2018-01-28T12:00:18.441Z,99613.00
2018-01-28T12:02:46.052Z,99607.59
2018-01-28T12:05:13.639Z,99600.48
2018-01-28T12:07:41.280Z,99594.95
2018-01-28T12:10:09.023Z,99599.01
2018-01-28T12:12:36.672Z,99590.80
2018-01-28T12:15:04.298Z,99587.02
2018-01-28T12:17:31.920Z,99591.69
2018-01-28T12:19:59.535Z,99580.15
2018-01-28T12:22:27.168Z,99573.39
2018-01-28T12:24:54.801Z,99574.44
2018-01-28T12:27:22.379Z,99569.81
2018-01-28T12:29:50.029Z,99568.46
2018-01-28T12:32:17.679Z,99569.38
2018-01-28T12:34:45.317Z,99567.44
2018-01-28T12:37:12.943Z,99564.57
2018-01-28T12:39:40.576Z,99562.62
2018-01-28T12:42:08.154Z,99572.66
2018-01-28T12:44:35.781Z,99564.27
2018-01-28T12:47:03.421Z,99569.13
2018-01-28T12:49:31.042Z,99568.75
2018-01-28T12:51:58.660Z,99568.38
2018-01-28T12:54:26.300Z,99574.50
2018-01-28T12:56:53.911Z,99578.16
2018-01-28T12:59:21.533Z,99588.92
2018-01-28T13:01:49.121Z,99584.92
2018-01-28T13:04:16.742Z,99590.70
2018-01-28T13:06:44.345Z,99584.13
2018-01-28T13:09:11.985Z,99584.54
2018-01-28T13:11:39.575Z,99585.28
2018-01-28T13:14:07.392Z,99592.01
2018-01-28T13:16:34.977Z,99587.33
2018-01-28T13:19:02.572Z,99582.38
2018-01-28T13:21:30.268Z,99582.49
2018-01-28T13:23:57.858Z,99579.10
2018-01-28T13:26:25.482Z,99576.66
2018-01-28T13:28:53.085Z,99575.77
2018-01-28T13:31:20.721Z,99571.43
2018-01-28T13:33:48.325Z,99575.28
2018-01-28T13:36:15.927Z,99574.44
2018-01-28T13:38:43.551Z,99573.00
2018-01-28T13:41:11.366Z,99571.67
2018-01-28T13:43:38.987Z,99570.61
2018-01-28T13:46:06.607Z,99576.45
2018-01-28T13:48:34.560Z,99577.53
2018-01-28T13:51:02.160Z,99577.72
2018-01-28T13:53:29.746Z,99580.53
2018-01-28T13:55:57.379Z,99576.06
2018-01-28T13:58:24.983Z,99585.18
2018-01-28T14:00:52.595Z,99586.61
2018-01-28T14:03:20.188Z,99590.78
2018-01-28T14:05:47.819Z,99592.98
2018-01-28T14:08:15.461Z,99597.50
2018-01-28T14:10:43.072Z,99594.04
2018-01-28T14:13:10.715Z,99595.81
2018-01-28T14:15:38.313Z,99597.09
2018-01-28T14:18:05.930Z,99601.16
2018-01-28T14:20:33.534Z,99597.84
2018-01-28T14:23:01.131Z,99599.09
2018-01-28T14:25:28.836Z,99601.91
2018-01-28T14:27:56.570Z,99595.88
2018-01-28T14:30:24.174Z,99600.79
2018-01-28T14:32:51.769Z,99597.08
2018-01-28T14:35:19.379Z,99603.86
2018-01-28T14:37:47.018Z,99603.17
2018-01-28T14:40:14.620Z,99607.08
2018-01-28T14:42:42.265Z,99610.53
2018-01-28T14:45:09.877Z,99603.77
2018-01-28T14:47:37.476Z,99605.87
2018-01-28T14:50:05.104Z,99609.02
2018-01-28T14:52:32.699Z,99608.02
2018-01-28T14:55:00.315Z,99611.93
2018-01-28T14:57:27.985Z,99604.66
2018-01-28T14:59:55.591Z,99607.93
2018-01-28T15:02:23.200Z,99614.39
2018-01-28T15:04:50.804Z,99609.36
2018-01-28T15:07:18.425Z,99606.81
2018-01-28T15:09:46.004Z,99612.28
2018-01-28T15:12:13.588Z,99615.36
2018-01-28T15:14:41.232Z,99612.91
2018-01-28T15:17:08.826Z,99604.39
2018-01-28T15:19:36.439Z,99599.57
2018-01-28T15:22:04.027Z,99604.02
2018-01-28T15:24:31.643Z,99598.11
2018-01-28T15:26:59.245Z,99593.93
2018-01-28T15:29:27.791Z,99593.40
2018-01-28T15:31:55.558Z,99595.95
2018-01-28T15:34:23.144Z,99596.37
2018-01-28T15:36:50.734Z,99601.62
2018-01-28T15:39:18.367Z,99598.44
2018-01-28T15:41:45.960Z,99599.33
2018-01-28T15:44:13.548Z,99597.02
2018-01-28T15:46:41.412Z,99596.09
2018-01-28T15:49:09.087Z,99588.73
2018-01-28T15:51:36.709Z,99586.45
2018-01-28T15:54:04.321Z,99589.31
2018-01-28T15:56:31.899Z,99589.36
2018-01-28T15:58:59.830Z,99597.72
2018-01-28T16:01:27.430Z,99601.69
2018-01-28T16:03:55.051Z,99601.88
2018-01-28T16:06:22.679Z,99611.34
2018-01-28T16:08:50.274Z,99615.72
2018-01-28T16:11:18.151Z,99622.73
2018-01-28T16:13:45.791Z,99620.27
2018-01-28T16:16:13.383Z,99621.80
2018-01-28T16:18:40.988Z,99627.30
2018-01-28T16:21:08.584Z,99616.17
2018-01-28T16:23:36.195Z,99616.30
2018-01-28T16:26:03.793Z,99612.25
2018-01-28T16:28:31.449Z,99610.55
2018-01-28T16:30:59.036Z,99608.11
2018-01-28T16:33:26.644Z,99615.05
2018-01-28T16:35:54.253Z,99611.68
2018-01-28T16:38:21.855Z,99614.44
2018-01-28T16:40:49.492Z,99624.75
2018-01-28T16:43:17.083Z,99616.57
2018-01-28T16:45:44.665Z,99615.84
2018-01-28T16:48:12.304Z,99618.84
2018-01-28T16:50:39.887Z,99619.56
2018-01-28T16:53:07.516Z,99625.65
2018-01-28T16:55:35.142Z,99629.84
2018-01-28T16:58:02.775Z,99626.67
2018-01-28T17:00:30.363Z,99621.41
2018-01-28T17:02:57.948Z,99621.34
2018-01-28T17:05:25.553Z,99624.47
2018-01-28T17:07:53.131Z,99613.77
2018-01-28T17:10:20.760Z,99613.86
2018-01-28T17:12:48.344Z,99617.59
2018-01-28T17:15:16.131Z,99613.97
2018-01-28T17:17:43.757Z,99620.45
2018-01-28T17:20:11.348Z,99626.50
2018-01-28T17:22:38.958Z,99629.57
2018-01-28T17:25:06.556Z,99630.64
2018-01-28T17:27:34.173Z,99628.84
2018-01-28T17:30:01.782Z,99636.16
2018-01-28T17:32:29.408Z,99629.11
2018-01-28T17:34:57.003Z,99625.93
2018-01-28T17:37:24.599Z,99628.42
2018-01-28T17:39:52.212Z,99630.30
2018-01-28T17:42:19.815Z,99632.00
2018-01-28T17:44:47.423Z,99628.14
2018-01-28T17:47:15.010Z,99641.55
2018-01-28T17:49:42.632Z,99641.41
2018-01-28T17:52:10.223Z,99634.59
2018-01-28T17:54:38.104Z,99638.61
2018-01-28T17:57:05.705Z,99639.56
2018-01-28T17:59:33.288Z,99642.38
2018-01-28T18:02:00.903Z,99654.52
2018-01-28T18:04:28.485Z,99658.87
2018-01-28T18:06:56.086Z,99658.61
2018-01-28T18:09:23.676Z,99652.06
2018-01-28T18:11:51.291Z,99652.52
2018-01-28T18:14:18.874Z,99652.23
2018-01-28T18:16:46.505Z,99662.27
2018-01-28T18:19:14.099Z,99660.22
2018-01-28T18:21:41.714Z,99661.08
2018-01-28T18:24:09.297Z,99652.48
2018-01-28T18:26:36.912Z,99652.56
2018-01-28T18:29:04.502Z,99650.46
2018-01-28T18:31:32.109Z,99648.55
2018-01-28T18:33:59.690Z,99642.55
2018-01-28T18:36:27.552Z,99632.45
2018-01-28T18:38:55.129Z,99639.10
2018-01-28T18:41:22.761Z,99637.25
2018-01-28T18:43:50.363Z,99643.55
2018-01-28T18:46:17.966Z,99643.57
2018-01-28T18:48:45.581Z,99644.69
2018-01-28T18:51:13.169Z,99636.89
2018-01-28T18:53:40.812Z,99638.47
2018-01-28T18:56:08.405Z,99645.57
2018-01-28T18:58:36.016Z,99645.47
2018-01-28T19:01:03.634Z,99648.34
2018-01-28T19:03:31.275Z,99652.88
2018-01-28T19:05:58.898Z,99648.30
2018-01-28T19:08:26.487Z,99651.61
2018-01-28T19:10:54.115Z,99640.51
2018-01-28T19:13:21.708Z,99648.59
2018-01-28T19:15:49.313Z,99645.11
2018-01-28T19:18:16.928Z,99643.14
2018-01-28T19:20:44.518Z,99644.76
2018-01-28T19:23:12.128Z,99653.64
2018-01-28T19:25:39.721Z,99654.23
2018-01-28T19:28:07.295Z,99653.03
2018-01-28T19:30:34.932Z,99656.55
2018-01-28T19:33:02.519Z,99648.38
2018-01-28T19:35:30.163Z,99646.95
2018-01-28T19:37:57.744Z,99647.50
2018-01-28T19:40:25.343Z,99643.59
2018-01-28T19:42:52.956Z,99647.24
2018-01-28T19:45:20.564Z,99647.09
2018-01-28T19:47:48.221Z,99644.94
2018-01-28T19:50:15.842Z,99651.69
2018-01-28T19:52:43.627Z,99651.47
2018-01-28T19:55:11.219Z,99659.17
2018-01-28T19:57:38.820Z,99661.62
2018-01-28T20:00:06.474Z,99659.32
2018-01-28T20:02:34.055Z,99650.83
2018-01-28T20:05:01.703Z,99649.78
2018-01-28T20:07:29.307Z,99656.34
2018-01-28T20:09:56.922Z,99656.46
2018-01-28T20:12:24.518Z,99650.46
2018-01-28T20:14:52.159Z,99638.59
2018-01-28T20:17:19.759Z,99637.83
2018-01-28T20:19:47.463Z,99644.13
2018-01-28T20:22:15.081Z,99640.99
2018-01-28T20:24:42.688Z,99637.00
2018-01-28T20:27:10.297Z,99633.38
2018-01-28T20:29:37.886Z,99636.91
2018-01-28T20:32:05.498Z,99629.57
2018-01-28T20:34:33.079Z,99638.34
2018-01-28T20:37:01.314Z,99641.39
2018-01-28T20:39:28.888Z,99632.84
2018-01-28T20:41:56.475Z,99640.91
2018-01-28T20:44:24.078Z,99639.04
2018-01-28T20:46:51.675Z,99633.09
2018-01-28T20:49:19.285Z,99628.27
2018-01-28T20:51:46.889Z,99624.88
2018-01-28T20:54:14.987Z,99623.87
2018-01-28T20:56:42.584Z,99624.39
2018-01-28T20:59:10.187Z,99623.30
2018-01-28T21:01:37.808Z,99632.95
2018-01-28T21:04:05.408Z,99626.00
2018-01-28T21:06:33.030Z,99626.25
2018-01-28T21:09:00.611Z,99627.53
2018-01-28T21:11:28.420Z,99630.26
2018-01-28T21:13:56.032Z,99631.07
2018-01-28T21:16:23.612Z,99631.54
2018-01-28T21:18:51.227Z,99627.16
2018-01-28T21:21:18.806Z,99631.92
2018-01-28T21:23:46.407Z,99632.47
2018-01-28T21:26:14.012Z,99628.30
2018-01-28T21:28:41.888Z,99623.16
2018-01-28T21:31:09.481Z,99623.67
2018-01-28T21:33:37.090Z,99622.81
2018-01-28T21:36:04.715Z,99623.12
2018-01-28T21:38:32.303Z,99629.16
2018-01-28T21:40:59.914Z,99623.27
2018-01-28T21:43:27.513Z,99627.03
2018-01-28T21:45:55.266Z,99622.09
2018-01-28T21:48:22.854Z,99625.69
2018-01-28T21:50:50.458Z,99626.23
2018-01-28T21:53:18.079Z,99622.22
2018-01-28T21:55:45.663Z,99615.70
2018-01-28T21:58:13.281Z,99609.30
2018-01-28T22:00:40.875Z,99601.77
2018-01-28T22:03:08.643Z,99594.44
2018-01-28T22:05:36.219Z,99603.89
2018-01-28T22:08:03.823Z,99595.57
2018-01-28T22:10:31.447Z,99597.63
2018-01-28T22:12:59.092Z,99594.51
2018-01-28T22:15:26.686Z,99595.60
2018-01-28T22:17:54.272Z,99593.85
2018-01-28T22:20:22.022Z,99593.82
2018-01-28T22:22:49.614Z,99590.88
2018-01-28T22:25:17.199Z,99590.48
2018-01-28T22:27:44.809Z,99584.84
2018-01-28T22:30:12.403Z,99586.56
2018-01-28T22:32:40.039Z,99583.03
2018-01-28T22:37:41.548Z,99577.59
2018-01-28T22:40:09.135Z,99576.43
2018-01-28T22:42:36.738Z,99580.22
2018-01-28T22:45:04.351Z,99575.30
2018-01-28T22:47:31.935Z,99567.17
2018-01-28T22:49:59.541Z,99572.69
2018-01-28T22:52:27.127Z,99571.45
2018-01-28T22:54:54.775Z,99565.55
2018-01-28T22:57:22.376Z,99560.57
2018-01-28T22:59:49.956Z,99557.38
2018-01-28T23:02:17.609Z,99554.69
2018-01-28T23:04:45.201Z,99551.91
2018-01-28T23:07:12.814Z,99559.38
2018-01-28T23:09:40.395Z,99551.09
2018-01-28T23:12:08.024Z,99550.91
2018-01-28T23:14:35.610Z,99544.88
2018-01-28T23:17:03.216Z,99537.44
2018-01-28T23:19:30.832Z,99540.98
2018-01-28T23:21:58.495Z,99540.56
2018-01-28T23:24:26.127Z,99543.49
2018-01-28T23:26:53.715Z,99539.62
2018-01-28T23:29:21.332Z,99534.72
2018-01-28T23:31:48.999Z,99551.36
2018-01-28T23:34:16.583Z,99549.83
2018-01-28T23:36:44.185Z,99556.95
2018-01-28T23:39:11.773Z,99554.82
2018-01-28T23:41:39.383Z,99554.82
2018-01-28T23:44:06.975Z,99556.89
2018-01-28T23:46:34.803Z,99560.61
2018-01-28T23:49:02.401Z,99561.20
2018-01-28T23:51:30.032Z,99556.89
2018-01-28T23:53:57.656Z,99545.81
2018-01-28T23:56:25.304Z,99545.25
2018-01-28T23:58:52.886Z,99530.91
